Weather at Adnan Menderes International Airport

Public forecast

Using degrees Celsius for public forecast. Weather courtesy of forecast.io.

Current aviation weather report (METAR) for Adnan Menderes International Airport

Retrieved 2021/08/04 15:20 UTC (25 minutes ago):

LTBJ 041520Z 33016KT CAVOK 38/11 Q1010 NOSIG RMK RWY16 34012KT

Aviation forecast (TAF) for Adnan Menderes International Airport

Retrieved 2021/08/04 12:03 UTC (4 hours ago):

TAF LTBJ 041040Z 0412/0512 35017G30KT CAVOK BECMG 0418/0421 36012KT BECMG 0423/0501 VRB02KT BECMG 0505/0507 36012KT BECMG 0510/0512 36017G27KT